Time;durP1;ratioP1;P1;durP2;ratioP2;P2;SDS_P1;SDS_P2;PMS_P1;PMS_P2;Temp;Humidity;BMP_temperature;BMP_pressure;BME280_temperature;BME280_humidity;BME280_pressure;Samples;Min_cycle;Max_cycle;Signal;HPM_P1;HPM_P2
2021/01/12 00:01:45;;;;;;;12.77;7.35;;;-1.50;92.40;;;;;;5093298;28;20020;-65
2021/01/12 00:04:12;;;;;;;14.18;8.05;;;-1.40;91.90;;;;;;5092263;28;20421;-65
2021/01/12 00:06:38;;;;;;;10.68;6.82;;;-1.40;91.90;;;;;;5094641;28;20020;-66
2021/01/12 00:09:04;;;;;;;12.48;7.65;;;-1.40;91.30;;;;;;5089972;28;20062;-66
2021/01/12 00:11:30;;;;;;;17.90;7.53;;;-1.40;90.80;;;;;;5094902;28;20024;-65
2021/01/12 00:13:56;;;;;;;12.48;7.10;;;-1.40;90.70;;;;;;5094556;28;20089;-66
2021/01/12 00:16:22;;;;;;;10.85;7.32;;;-1.40;90.80;;;;;;5095099;28;20064;-66
2021/01/12 00:18:48;;;;;;;12.48;7.10;;;-1.50;91.20;;;;;;5087263;28;20033;-66
2021/01/12 00:21:15;;;;;;;10.77;6.95;;;-1.50;91.30;;;;;;5078056;28;20688;-67
2021/01/12 00:23:41;;;;;;;12.95;6.85;;;-1.40;91.50;;;;;;5082232;28;20056;-65
2021/01/12 00:26:10;;;;;;;11.73;7.30;;;-1.40;91.90;;;;;;5094698;28;20445;-67
2021/01/12 00:28:36;;;;;;;10.30;6.40;;;-1.40;92.50;;;;;;5082681;28;20039;-66
2021/01/12 00:31:05;;;;;;;10.95;7.30;;;-1.50;92.90;;;;;;5084517;28;20074;-64
2021/01/12 00:33:32;;;;;;;9.75;6.13;;;-1.60;93.60;;;;;;5093085;28;20020;-66
2021/01/12 00:36:03;;;;;;;10.70;7.03;;;-1.70;94.10;;;;;;5078171;28;20345;-65
2021/01/12 00:38:29;;;;;;;11.32;6.70;;;-1.70;94.80;;;;;;5083413;28;20024;-67
2021/01/12 00:40:55;;;;;;;10.75;6.70;;;-1.50;95.00;;;;;;5087695;28;20444;-66
2021/01/12 00:43:20;;;;;;;9.63;6.63;;;-1.50;95.00;;;;;;5089382;28;20028;-67
2021/01/12 00:45:49;;;;;;;9.40;6.00;;;-1.50;95.20;;;;;;5075947;28;20025;-67
2021/01/12 00:48:14;;;;;;;10.93;6.40;;;-1.50;95.30;;;;;;5091629;28;20054;-65
2021/01/12 00:50:40;;;;;;;9.75;6.25;;;-1.50;95.40;;;;;;5087755;28;20278;-65
2021/01/12 00:53:05;;;;;;;12.93;6.72;;;-1.50;95.40;;;;;;5093673;28;20111;-66
2021/01/12 00:55:31;;;;;;;8.70;5.90;;;-1.50;95.40;;;;;;5092490;28;20109;-66
2021/01/12 00:58:00;;;;;;;10.93;6.50;;;-1.40;95.60;;;;;;5085465;28;20082;-65
2021/01/12 01:00:25;;;;;;;11.23;6.75;;;-1.40;95.80;;;;;;5080909;28;20038;-66
2021/01/12 01:02:51;;;;;;;8.88;6.40;;;-1.30;95.80;;;;;;5075216;28;20032;-65
2021/01/12 01:05:18;;;;;;;9.35;5.95;;;-1.30;95.80;;;;;;5082041;28;20039;-65
2021/01/12 01:07:47;;;;;;;8.50;6.15;;;-1.40;95.70;;;;;;5083458;28;20063;-65
2021/01/12 01:10:12;;;;;;;9.52;5.72;;;-1.30;95.80;;;;;;5076061;28;20337;-65
2021/01/12 01:12:38;;;;;;;9.02;5.70;;;-1.30;95.90;;;;;;5086289;28;20028;-67
2021/01/12 01:15:04;;;;;;;7.53;5.32;;;-1.20;95.60;;;;;;5083314;28;20024;-67
2021/01/12 01:17:30;;;;;;;9.00;5.68;;;-1.20;95.40;;;;;;5080912;28;20040;-66
2021/01/12 01:19:55;;;;;;;8.93;5.43;;;-1.20;95.60;;;;;;5075514;28;20034;-66
2021/01/12 01:22:24;;;;;;;8.35;5.25;;;-1.20;95.80;;;;;;5089026;28;20020;-67
2021/01/12 01:24:50;;;;;;;7.90;4.95;;;-1.10;95.60;;;;;;5091139;28;20074;-66
2021/01/12 01:27:15;;;;;;;9.70;4.88;;;-1.00;95.50;;;;;;5089143;28;20024;-65
2021/01/12 01:29:41;;;;;;;7.43;4.78;;;-1.00;95.30;;;;;;5089927;28;20035;-65
2021/01/12 01:32:10;;;;;;;7.80;4.78;;;-0.90;95.10;;;;;;5079523;28;20372;-65
2021/01/12 01:34:36;;;;;;;7.05;4.55;;;-0.90;95.10;;;;;;5080922;28;20103;-68
2021/01/12 01:37:01;;;;;;;7.05;4.70;;;-0.90;94.90;;;;;;5073541;28;20104;-68
2021/01/12 01:39:30;;;;;;;9.57;4.88;;;-1.00;95.10;;;;;;5086526;28;20024;-68
2021/01/12 01:41:59;;;;;;;7.65;4.75;;;-1.10;95.10;;;;;;5079093;28;20021;-67
2021/01/12 01:44:26;;;;;;;7.32;4.15;;;-1.00;94.90;;;;;;5092030;28;20067;-68
2021/01/12 01:46:51;;;;;;;6.10;4.25;;;-0.90;94.60;;;;;;5094955;28;20039;-68
2021/01/12 01:49:17;;;;;;;7.38;4.20;;;-0.80;94.30;;;;;;5092247;28;20020;-67
2021/01/12 01:51:44;;;;;;;6.57;4.47;;;-0.70;94.00;;;;;;5088355;28;20099;-67
2021/01/12 01:54:14;;;;;;;7.93;4.65;;;-0.80;94.00;;;;;;5089529;28;20298;-68
2021/01/12 01:56:40;;;;;;;6.70;4.28;;;-0.80;94.00;;;;;;5098567;28;20103;-68
2021/01/12 01:59:06;;;;;;;7.28;4.10;;;-0.90;94.20;;;;;;5087889;28;20103;-67
2021/01/12 02:01:34;;;;;;;6.18;4.13;;;-0.90;94.40;;;;;;5098467;28;20349;-67
2021/01/12 02:04:24;;;;;;;7.35;3.88;;;-0.80;94.30;;;;;;5091343;28;20036;-66
2021/01/12 02:06:51;;;;;;;6.55;3.63;;;-0.70;94.10;;;;;;5078348;28;20016;-67
2021/01/12 02:09:22;;;;;;;6.68;4.00;;;-0.60;93.60;;;;;;5088232;28;20509;-66
2021/01/12 02:12:01;;;;;;;6.75;3.92;;;-0.60;93.40;;;;;;5089997;28;20026;-67
2021/01/12 02:14:29;;;;;;;5.72;3.60;;;-0.70;93.50;;;;;;5088474;28;20073;-66
2021/01/12 02:16:57;;;;;;;6.15;3.28;;;-0.70;93.40;;;;;;5094587;28;20043;-68
2021/01/12 02:19:26;;;;;;;4.60;3.00;;;-0.60;92.70;;;;;;5089027;28;20032;-66
2021/01/12 02:21:58;;;;;;;4.72;3.13;;;-0.50;92.20;;;;;;5083877;28;20035;-66
2021/01/12 02:24:23;;;;;;;6.38;3.83;;;-0.40;91.70;;;;;;5096709;28;20306;-65
2021/01/12 02:26:50;;;;;;;7.47;3.28;;;-0.40;91.80;;;;;;5097693;28;20039;-68
2021/01/12 02:29:16;;;;;;;5.63;3.65;;;-0.60;92.20;;;;;;5089566;28;20028;-66
2021/01/12 02:31:43;;;;;;;4.88;3.03;;;-0.60;91.90;;;;;;5080209;28;20021;-67
2021/01/12 02:34:15;;;;;;;4.45;3.15;;;-0.50;91.40;;;;;;5086934;28;20157;-67
2021/01/12 02:36:41;;;;;;;5.03;2.72;;;-0.50;91.40;;;;;;5092461;28;20118;-67
2021/01/12 02:39:14;;;;;;;4.32;2.55;;;-0.30;92.50;;;;;;5079289;28;20154;-67
2021/01/12 02:41:40;;;;;;;4.22;2.58;;;-0.10;93.00;;;;;;5077693;28;20031;-66
2021/01/12 02:44:11;;;;;;;4.47;2.58;;;0.00;92.80;;;;;;5096796;28;20031;-65
2021/01/12 02:46:38;;;;;;;3.80;2.42;;;0.10;93.00;;;;;;5086901;28;20020;-67
2021/01/12 02:49:03;;;;;;;4.28;2.40;;;0.20;92.80;;;;;;5077953;28;20025;-66
2021/01/12 02:51:29;;;;;;;3.45;2.00;;;0.20;92.50;;;;;;5080518;28;20024;-65
2021/01/12 02:53:55;;;;;;;3.67;2.17;;;0.50;92.80;;;;;;5093122;28;20035;-68
2021/01/12 02:56:23;;;;;;;3.90;2.20;;;0.60;92.30;;;;;;5077102;28;20418;-68
2021/01/12 02:58:50;;;;;;;2.78;1.90;;;0.60;92.10;;;;;;5079836;28;20426;-68
2021/01/12 03:01:16;;;;;;;4.25;2.60;;;0.70;92.10;;;;;;5083134;28;20039;-67
2021/01/12 03:03:42;;;;;;;2.85;1.95;;;0.60;91.90;;;;;;5078179;28;20033;-67
2021/01/12 03:06:07;;;;;;;3.65;2.40;;;0.60;92.10;;;;;;5097988;28;20084;-66
2021/01/12 03:08:33;;;;;;;4.05;2.20;;;0.60;92.00;;;;;;5090334;28;20409;-67
2021/01/12 03:10:59;;;;;;;3.95;2.40;;;0.60;92.10;;;;;;5084365;28;20032;-65
2021/01/12 03:13:24;;;;;;;3.60;1.90;;;0.50;92.00;;;;;;5078850;28;20101;-66
2021/01/12 03:15:50;;;;;;;2.88;1.80;;;0.40;92.20;;;;;;5085207;28;20035;-66
2021/01/12 03:18:15;;;;;;;3.22;2.00;;;0.40;93.00;;;;;;5087694;28;20062;-67
2021/01/12 03:20:41;;;;;;;3.45;1.98;;;0.50;93.00;;;;;;5091626;28;20388;-67
2021/01/12 03:23:07;;;;;;;3.92;2.10;;;0.50;93.10;;;;;;5092901;28;20107;-68
2021/01/12 03:25:32;;;;;;;3.42;2.22;;;0.60;93.30;;;;;;5091842;28;20032;-67
2021/01/12 03:27:58;;;;;;;2.53;1.80;;;0.70;93.00;;;;;;5086160;28;20111;-67
2021/01/12 03:30:27;;;;;;;3.67;2.22;;;0.80;92.70;;;;;;5093000;28;20414;-65
2021/01/12 03:32:53;;;;;;;4.32;2.55;;;0.80;92.40;;;;;;5077752;28;20025;-66
2021/01/12 03:35:20;;;;;;;3.45;2.03;;;0.70;92.50;;;;;;5077168;28;20024;-67
2021/01/12 03:37:45;;;;;;;2.97;1.98;;;0.70;92.40;;;;;;5080593;28;20085;-66
2021/01/12 03:40:11;;;;;;;3.72;2.47;;;0.60;92.60;;;;;;5077286;28;20481;-66
2021/01/12 03:42:38;;;;;;;3.67;2.20;;;0.60;92.90;;;;;;5075966;28;20028;-66
2021/01/12 03:45:05;;;;;;;3.72;2.10;;;0.70;92.80;;;;;;5091470;28;20024;-65
2021/01/12 03:47:31;;;;;;;3.40;2.08;;;0.80;92.70;;;;;;5093855;28;20335;-66
2021/01/12 03:49:57;;;;;;;3.15;2.10;;;0.90;92.50;;;;;;5079914;28;20024;-66
2021/01/12 03:52:22;;;;;;;3.80;2.10;;;1.00;92.40;;;;;;5090437;28;20024;-66
2021/01/12 03:54:48;;;;;;;3.85;2.15;;;1.00;92.20;;;;;;5095466;28;20032;-66
2021/01/12 03:57:14;;;;;;;3.03;1.90;;;1.00;92.40;;;;;;5095344;28;20337;-66
2021/01/12 03:59:39;;;;;;;3.65;1.90;;;1.00;92.20;;;;;;5095485;28;20028;-65
2021/01/12 04:02:09;;;;;;;3.83;2.30;;;1.00;92.20;;;;;;5079077;28;20313;-66
2021/01/12 04:04:34;;;;;;;3.28;2.20;;;1.00;92.10;;;;;;5081168;28;20064;-67
2021/01/12 04:07:00;;;;;;;2.65;1.77;;;1.00;92.30;;;;;;5077174;28;20438;-66
2021/01/12 04:09:25;;;;;;;3.35;1.90;;;0.90;92.40;;;;;;5076289;28;20123;-67
2021/01/12 04:11:51;;;;;;;4.03;2.03;;;0.90;92.50;;;;;;5082080;28;20059;-67
2021/01/12 04:14:20;;;;;;;3.13;2.10;;;1.00;92.40;;;;;;5076937;28;20036;-66
2021/01/12 04:16:45;;;;;;;3.80;2.10;;;1.00;92.40;;;;;;5081206;28;20348;-65
2021/01/12 04:19:11;;;;;;;3.38;2.15;;;1.00;92.30;;;;;;5084318;28;20040;-66
2021/01/12 04:21:36;;;;;;;8.25;3.08;;;1.00;91.90;;;;;;5087321;28;20099;-66
2021/01/12 04:24:03;;;;;;;3.58;2.00;;;1.00;92.70;;;;;;5095941;28;20111;-66
2021/01/12 04:26:28;;;;;;;3.55;2.20;;;1.00;92.50;;;;;;5090756;28;20035;-66
2021/01/12 04:28:54;;;;;;;4.57;1.92;;;1.10;92.30;;;;;;5094981;28;20500;-69
2021/01/12 04:31:20;;;;;;;4.13;2.35;;;1.10;92.60;;;;;;5091599;28;20024;-68
2021/01/12 04:33:45;;;;;;;3.45;2.08;;;1.20;92.80;;;;;;5096396;28;20019;-68
2021/01/12 04:36:13;;;;;;;3.75;2.17;;;1.40;93.00;;;;;;5087567;28;20020;-68
2021/01/12 04:38:39;;;;;;;5.70;2.22;;;1.50;92.60;;;;;;5093291;28;20016;-68
2021/01/12 04:41:04;;;;;;;4.47;2.17;;;1.50;92.70;;;;;;5092246;28;20042;-67
2021/01/12 04:43:30;;;;;;;3.63;2.28;;;1.50;92.50;;;;;;5085940;28;20029;-68
2021/01/12 04:45:55;;;;;;;3.40;2.15;;;1.50;92.10;;;;;;5082507;28;20035;-67
2021/01/12 04:48:22;;;;;;;6.38;2.53;;;1.50;92.10;;;;;;5090504;28;20074;-67
2021/01/12 04:50:48;;;;;;;4.35;2.28;;;1.30;92.60;;;;;;5089664;28;20364;-68
2021/01/12 04:53:13;;;;;;;4.32;2.58;;;1.30;92.50;;;;;;5080332;28;20028;-68
2021/01/12 04:55:43;;;;;;;3.55;2.03;;;1.30;92.60;;;;;;5094158;28;20664;-68
2021/01/12 04:58:09;;;;;;;4.22;2.35;;;1.30;92.70;;;;;;5092775;28;20028;-68
2021/01/12 05:00:37;;;;;;;5.05;3.28;;;1.30;92.80;;;;;;5078211;28;20127;-67
2021/01/12 05:03:07;;;;;;;3.95;2.58;;;1.30;92.80;;;;;;5091365;28;20021;-66
2021/01/12 05:05:39;;;;;;;5.10;3.00;;;1.30;92.60;;;;;;5078754;28;20077;-67
2021/01/12 05:08:10;;;;;;;4.40;2.60;;;1.30;92.90;;;;;;5083902;28;20043;-67
2021/01/12 05:10:40;;;;;;;4.47;2.85;;;1.20;93.40;;;;;;5078929;28;20362;-67
2021/01/12 05:13:09;;;;;;;3.83;2.53;;;1.20;93.50;;;;;;5089691;28;20031;-66
2021/01/12 05:15:36;;;;;;;4.63;2.60;;;1.10;93.60;;;;;;5091400;28;20360;-66
2021/01/12 05:18:05;;;;;;;4.60;2.63;;;1.10;93.60;;;;;;5085159;28;20101;-67
2021/01/12 05:20:37;;;;;;;4.43;2.42;;;1.20;93.40;;;;;;5076913;28;20035;-67
2021/01/12 05:23:19;;;;;;;4.30;2.50;;;1.20;93.70;;;;;;5080812;28;20376;-65
2021/01/12 05:25:48;;;;;;;4.38;2.70;;;1.10;93.90;;;;;;5095319;28;20028;-66
2021/01/12 05:28:13;;;;;;;4.35;2.45;;;1.10;94.00;;;;;;5088849;28;20021;-65
2021/01/12 05:30:39;;;;;;;4.50;2.72;;;1.20;93.90;;;;;;5075978;28;20112;-67
2021/01/12 05:33:05;;;;;;;6.18;2.78;;;1.30;94.20;;;;;;5080675;28;20029;-65
2021/01/12 05:35:38;;;;;;;3.67;2.13;;;1.30;94.40;;;;;;5080288;28;20022;-65
2021/01/12 05:38:08;;;;;;;3.28;2.00;;;1.60;94.50;;;;;;5081243;28;20056;-65
2021/01/12 05:40:37;;;;;;;3.03;1.88;;;1.80;94.40;;;;;;5075286;28;20382;-67
2021/01/12 05:43:14;;;;;;;2.83;1.88;;;1.90;94.00;;;;;;5087139;28;20042;-67
2021/01/12 05:45:43;;;;;;;3.45;1.75;;;2.00;93.50;;;;;;5095152;28;20024;-67
2021/01/12 05:48:10;;;;;;;3.30;1.95;;;2.00;93.60;;;;;;5076932;28;20105;-66
2021/01/12 05:50:37;;;;;;;3.08;1.83;;;2.00;93.60;;;;;;5075152;28;20055;-66
2021/01/12 05:53:05;;;;;;;3.35;1.98;;;2.10;93.30;;;;;;5088163;28;20028;-66
2021/01/12 05:55:37;;;;;;;3.25;1.80;;;2.00;93.00;;;;;;5074973;28;20108;-66
2021/01/12 05:58:32;;;;;;;2.83;1.67;;;2.00;93.30;;;;;;5088388;28;20020;-67
2021/01/12 06:01:02;;;;;;;1.80;1.42;;;2.00;93.60;;;;;;5074312;28;20434;-65
2021/01/12 06:03:34;;;;;;;3.17;1.70;;;2.10;93.10;;;;;;5092875;28;20031;-65
2021/01/12 06:06:00;;;;;;;3.53;2.17;;;2.10;93.20;;;;;;5093826;28;20024;-67
2021/01/12 06:08:27;;;;;;;4.68;2.67;;;2.10;93.50;;;;;;5080405;28;20313;-67
2021/01/12 06:10:53;;;;;;;3.95;2.42;;;2.10;93.40;;;;;;5074753;28;20360;-66
2021/01/12 06:13:19;;;;;;;2.95;1.77;;;2.10;93.30;;;;;;5090340;28;20032;-67
2021/01/12 06:15:47;;;;;;;5.13;2.10;;;2.10;93.20;;;;;;5095151;28;20024;-67
2021/01/12 06:18:17;;;;;;;3.00;1.60;;;2.10;93.30;;;;;;5084568;28;20137;-66
2021/01/12 06:20:55;;;;;;;2.80;1.67;;;2.00;93.70;;;;;;5074623;28;20036;-66
2021/01/12 06:23:49;;;;;;;2.25;1.45;;;2.00;94.10;;;;;;5089922;28;20077;-66
2021/01/12 06:26:15;;;;;;;3.17;1.85;;;2.00;94.30;;;;;;5094378;28;20040;-67
2021/01/12 06:28:42;;;;;;;3.00;1.60;;;2.10;94.10;;;;;;5078328;28;20035;-67
2021/01/12 06:31:12;;;;;;;3.05;1.75;;;2.10;93.90;;;;;;5094294;28;20028;-66
2021/01/12 06:33:39;;;;;;;4.18;1.75;;;2.00;94.10;;;;;;5075954;28;20074;-65
2021/01/12 06:36:07;;;;;;;3.20;1.80;;;2.00;94.50;;;;;;5076981;28;20029;-66
2021/01/12 06:38:42;;;;;;;3.97;2.03;;;2.00;94.10;;;;;;5087545;28;20312;-66
2021/01/12 06:41:08;;;;;;;2.92;1.80;;;2.00;94.10;;;;;;5097869;28;20035;-67
2021/01/12 06:43:35;;;;;;;2.72;1.80;;;2.10;93.70;;;;;;5096434;28;20028;-66
2021/01/12 06:46:01;;;;;;;2.97;1.85;;;2.10;93.70;;;;;;5094626;28;20025;-66
2021/01/12 06:48:28;;;;;;;3.22;1.92;;;2.10;93.70;;;;;;5094203;28;20242;-66
2021/01/12 06:50:56;;;;;;;2.83;1.90;;;2.10;93.60;;;;;;5096858;28;20105;-67
2021/01/12 06:53:22;;;;;;;3.33;2.08;;;2.10;93.60;;;;;;5083006;28;20069;-66
2021/01/12 06:55:51;;;;;;;4.13;2.00;;;2.10;93.70;;;;;;5095848;28;20032;-66
2021/01/12 06:58:16;;;;;;;3.10;1.80;;;2.10;93.60;;;;;;5076828;28;20028;-64
2021/01/12 07:00:57;;;;;;;3.30;1.88;;;2.10;93.60;;;;;;5077965;28;20112;-66
2021/01/12 07:03:29;;;;;;;3.15;1.80;;;2.10;93.80;;;;;;5077714;28;20311;-65
2021/01/12 07:06:00;;;;;;;3.10;1.90;;;2.20;93.50;;;;;;5080316;28;20079;-67
2021/01/12 07:08:27;;;;;;;5.18;1.90;;;2.30;93.10;;;;;;5092431;28;20035;-67
2021/01/12 07:10:53;;;;;;;4.82;2.25;;;2.30;93.00;;;;;;5096767;28;20089;-65
2021/01/12 07:13:18;;;;;;;2.90;1.90;;;2.20;93.20;;;;;;5093383;28;20036;-65
2021/01/12 07:15:49;;;;;;;3.60;2.10;;;2.20;93.50;;;;;;5077542;28;20425;-65
2021/01/12 07:18:22;;;;;;;3.30;2.00;;;2.20;93.00;;;;;;5077648;28;20395;-66
2021/01/12 07:20:50;;;;;;;3.90;2.28;;;2.20;93.90;;;;;;5076148;28;20031;-66
2021/01/12 07:23:17;;;;;;;4.20;2.42;;;2.20;93.90;;;;;;5084161;28;20035;-68
2021/01/12 07:25:44;;;;;;;4.13;2.40;;;2.20;93.70;;;;;;5084116;28;20040;-68
2021/01/12 07:28:20;;;;;;;4.95;2.50;;;2.10;93.80;;;;;;5076261;28;20036;-67
2021/01/12 07:30:51;;;;;;;5.80;2.33;;;2.10;93.80;;;;;;5080019;28;20031;-67
2021/01/12 07:33:17;;;;;;;4.93;2.53;;;2.20;94.00;;;;;;5079304;28;20024;-66
2021/01/12 07:35:45;;;;;;;5.47;2.42;;;2.20;93.90;;;;;;5094878;28;20042;-66
2021/01/12 07:38:15;;;;;;;3.40;2.05;;;2.20;94.00;;;;;;5086952;28;20024;-67
2021/01/12 07:40:40;;;;;;;5.05;2.22;;;2.20;93.90;;;;;;5089397;28;20395;-67
2021/01/12 07:43:06;;;;;;;4.25;2.22;;;2.30;94.20;;;;;;5096233;28;20032;-68
2021/01/12 07:45:34;;;;;;;3.15;1.88;;;2.30;94.40;;;;;;5084880;28;20028;-68
2021/01/12 07:48:01;;;;;;;4.38;2.55;;;2.20;94.70;;;;;;5088358;28;20427;-68
2021/01/12 07:50:29;;;;;;;3.30;1.83;;;2.30;94.60;;;;;;5088235;28;20394;-68
2021/01/12 07:52:57;;;;;;;5.15;2.72;;;2.30;94.50;;;;;;5093740;28;20031;-67
2021/01/12 07:55:24;;;;;;;4.47;2.50;;;2.30;94.30;;;;;;5079557;28;20299;-67
2021/01/12 07:57:50;;;;;;;2.90;1.80;;;2.30;94.40;;;;;;5076867;28;20031;-67
2021/01/12 08:00:18;;;;;;;2.88;1.80;;;2.30;94.10;;;;;;5080085;28;20032;-66
2021/01/12 08:02:48;;;;;;;4.07;2.10;;;2.30;93.80;;;;;;5095958;28;20375;-67
2021/01/12 08:05:17;;;;;;;2.97;1.88;;;2.30;93.90;;;;;;5084672;28;20028;-66
2021/01/12 08:07:42;;;;;;;3.03;1.65;;;2.20;94.20;;;;;;5087810;28;20103;-67
2021/01/12 08:10:09;;;;;;;2.08;1.40;;;2.30;93.90;;;;;;5076588;28;20111;-65
2021/01/12 08:12:38;;;;;;;2.17;1.38;;;2.30;93.40;;;;;;5081161;28;20024;-67
2021/01/12 08:15:13;;;;;;;4.15;2.30;;;2.40;93.20;;;;;;5089776;28;20031;-66
2021/01/12 08:17:47;;;;;;;2.63;1.63;;;2.50;93.20;;;;;;5093209;28;20050;-67
2021/01/12 08:20:15;;;;;;;2.08;1.40;;;2.50;92.80;;;;;;5076411;28;20063;-66
2021/01/12 08:22:41;;;;;;;1.65;1.30;;;2.50;93.30;;;;;;5077195;28;20452;-67
2021/01/12 08:25:07;;;;;;;4.68;1.63;;;2.60;93.10;;;;;;5082073;28;20044;-66
2021/01/12 08:27:33;;;;;;;3.00;1.70;;;2.70;92.70;;;;;;5095324;28;20032;-67
2021/01/12 08:30:06;;;;;;;2.88;1.55;;;2.60;92.70;;;;;;5086262;28;20028;-66
2021/01/12 08:32:34;;;;;;;4.32;2.10;;;2.60;92.80;;;;;;5076488;28;20020;-66
2021/01/12 08:35:08;;;;;;;2.17;1.40;;;2.70;92.70;;;;;;5082651;28;20044;-66
2021/01/12 08:37:41;;;;;;;3.47;1.95;;;2.70;92.60;;;;;;5075183;28;20020;-68
2021/01/12 08:40:13;;;;;;;2.22;1.40;;;2.80;92.40;;;;;;5088800;28;20328;-67
2021/01/12 08:42:40;;;;;;;4.15;2.03;;;2.80;92.60;;;;;;5094137;28;20024;-65
2021/01/12 08:45:17;;;;;;;2.92;1.70;;;2.80;92.40;;;;;;5088867;28;20030;-65
2021/01/12 08:47:47;;;;;;;2.60;1.50;;;2.70;92.60;;;;;;5075883;28;20032;-66
2021/01/12 08:50:14;;;;;;;2.78;1.60;;;2.70;92.60;;;;;;5095756;28;20024;-66
2021/01/12 08:52:47;;;;;;;2.85;1.67;;;2.80;92.40;;;;;;5087028;28;20032;-66
2021/01/12 08:55:24;;;;;;;2.78;1.70;;;2.80;92.30;;;;;;5088599;28;20486;-66
2021/01/12 08:58:06;;;;;;;2.65;1.55;;;2.70;92.50;;;;;;5094847;28;20024;-66
2021/01/12 09:00:36;;;;;;;3.22;1.77;;;2.80;92.50;;;;;;5093386;28;20362;-66
2021/01/12 09:03:03;;;;;;;2.65;1.52;;;2.80;92.80;;;;;;5074159;28;20307;-68
2021/01/12 09:05:51;;;;;;;3.38;1.77;;;2.80;92.60;;;;;;5079991;28;20027;-68
2021/01/12 09:08:21;;;;;;;2.95;1.80;;;2.80;93.10;;;;;;5083472;28;20044;-67
2021/01/12 09:10:46;;;;;;;3.08;1.90;;;2.80;93.20;;;;;;5079030;28;20028;-67
2021/01/12 09:13:12;;;;;;;3.33;1.90;;;2.80;93.20;;;;;;5089830;28;20014;-66
2021/01/12 09:15:47;;;;;;;3.85;2.05;;;2.70;93.20;;;;;;5075388;28;20091;-67
2021/01/12 09:18:19;;;;;;;7.13;4.45;;;2.80;93.20;;;;;;5089774;28;20044;-68
2021/01/12 09:21:00;;;;;;;2.72;1.73;;;2.70;93.10;;;;;;5095474;28;20028;-69
2021/01/12 09:23:29;;;;;;;3.25;1.60;;;2.70;93.40;;;;;;5092678;28;20433;-66
2021/01/12 09:26:00;;;;;;;4.00;2.10;;;2.70;93.30;;;;;;5080362;28;20032;-68
2021/01/12 09:28:28;;;;;;;6.97;2.03;;;2.70;93.20;;;;;;5089339;28;20031;-66
2021/01/12 09:31:25;;;;;;;3.45;1.90;;;2.70;93.40;;;;;;5095154;28;20028;-66
2021/01/12 09:33:53;;;;;;;2.60;1.60;;;2.60;93.40;;;;;;5093447;28;20051;-66
2021/01/12 09:36:21;;;;;;;2.13;1.45;;;2.60;93.50;;;;;;5094497;28;20469;-66
2021/01/12 09:38:52;;;;;;;2.92;1.88;;;2.70;93.60;;;;;;5092311;28;20417;-68
2021/01/12 09:41:26;;;;;;;3.35;1.60;;;2.60;93.60;;;;;;5075119;28;20031;-68
2021/01/12 09:43:52;;;;;;;2.97;1.80;;;2.60;93.50;;;;;;5076367;28;20029;-68
2021/01/12 09:46:19;;;;;;;2.17;1.35;;;2.60;93.70;;;;;;5075198;28;20388;-68
2021/01/12 09:48:45;;;;;;;3.80;1.70;;;2.60;93.90;;;;;;5089175;28;20375;-67
2021/01/12 09:51:11;;;;;;;3.22;1.70;;;2.60;94.10;;;;;;5079471;28;20430;-67
2021/01/12 09:53:47;;;;;;;2.05;1.48;;;2.60;94.10;;;;;;5074033;28;20033;-67
2021/01/12 09:56:17;;;;;;;3.60;1.50;;;2.60;94.40;;;;;;5086437;28;20028;-68
2021/01/12 09:58:43;;;;;;;1.65;1.20;;;2.60;94.40;;;;;;5074924;28;20422;-67
2021/01/12 10:01:09;;;;;;;2.53;1.50;;;2.60;94.50;;;;;;5083819;28;20040;-68
2021/01/12 10:03:35;;;;;;;1.83;1.23;;;2.70;94.50;;;;;;5075002;28;20029;-68
2021/01/12 10:06:01;;;;;;;2.53;1.33;;;2.70;94.30;;;;;;5075706;28;20024;-67
2021/01/12 10:08:26;;;;;;;1.98;1.30;;;2.70;94.50;;;;;;5073574;28;20024;-66
2021/01/12 10:10:53;;;;;;;2.05;1.30;;;2.60;94.90;;;;;;5086721;28;20123;-66
2021/01/12 10:13:19;;;;;;;2.00;1.20;;;2.60;94.80;;;;;;5098249;28;20583;-68
2021/01/12 10:15:46;;;;;;;2.22;1.25;;;2.60;94.90;;;;;;5090520;28;20094;-67
2021/01/12 10:18:11;;;;;;;2.13;1.40;;;2.60;95.20;;;;;;5098812;28;20050;-69
2021/01/12 10:20:37;;;;;;;1.95;1.25;;;2.60;95.10;;;;;;5097943;28;20409;-68
2021/01/12 10:23:03;;;;;;;2.25;1.48;;;2.70;95.20;;;;;;5096549;28;20028;-70
2021/01/12 10:25:28;;;;;;;2.25;1.30;;;2.60;95.30;;;;;;5089496;28;20036;-70
2021/01/12 10:27:55;;;;;;;2.50;1.50;;;2.60;95.40;;;;;;5095077;28;20032;-70
2021/01/12 10:30:22;;;;;;;2.30;1.33;;;2.60;95.60;;;;;;5091076;28;20422;-69
2021/01/12 10:32:48;;;;;;;2.15;1.40;;;2.60;95.40;;;;;;5088841;28;20321;-69
2021/01/12 10:35:14;;;;;;;2.20;1.27;;;2.60;95.90;;;;;;5088782;28;20759;-70
2021/01/12 10:37:40;;;;;;;1.60;1.13;;;2.60;95.80;;;;;;5088851;28;20048;-70
2021/01/12 10:40:06;;;;;;;2.05;1.20;;;2.50;96.10;;;;;;5079198;28;20109;-69
2021/01/12 10:42:32;;;;;;;2.13;1.27;;;2.60;95.80;;;;;;5095034;28;20024;-68
2021/01/12 10:44:58;;;;;;;2.05;1.30;;;2.60;95.90;;;;;;5085952;28;20027;-70
2021/01/12 10:47:24;;;;;;;2.00;1.17;;;2.50;95.90;;;;;;5097365;28;20060;-70
2021/01/12 10:49:49;;;;;;;2.03;1.38;;;2.40;96.10;;;;;;5090611;28;20319;-69
2021/01/12 10:52:15;;;;;;;2.13;1.25;;;2.30;96.70;;;;;;5076708;28;20022;-68
2021/01/12 10:54:47;;;;;;;2.33;1.45;;;2.30;97.20;;;;;;5093231;28;20093;-70
2021/01/12 10:57:12;;;;;;;1.40;1.10;;;2.30;97.20;;;;;;5097391;28;20056;-67
2021/01/12 10:59:38;;;;;;;1.92;1.33;;;2.20;97.70;;;;;;5095887;28;20486;-70
2021/01/12 11:02:07;;;;;;;1.88;1.33;;;2.20;97.80;;;;;;5096177;28;20023;-70
2021/01/12 11:04:33;;;;;;;1.48;1.17;;;2.10;98.00;;;;;;5098011;28;20024;-70
2021/01/12 11:06:59;;;;;;;1.75;1.20;;;2.10;98.00;;;;;;5082527;28;20429;-70
2021/01/12 11:09:28;;;;;;;2.65;1.58;;;2.10;98.00;;;;;;5079115;28;20028;-68
2021/01/12 11:12:03;;;;;;;2.05;1.30;;;2.10;98.00;;;;;;5097058;28;20024;-70
2021/01/12 11:14:29;;;;;;;1.40;1.13;;;2.00;98.00;;;;;;5096619;28;20016;-69
2021/01/12 11:16:55;;;;;;;1.67;1.27;;;2.00;98.00;;;;;;5084182;28;20028;-68
2021/01/12 11:19:20;;;;;;;1.73;1.25;;;2.00;98.00;;;;;;5077677;28;20025;-68
2021/01/12 11:21:49;;;;;;;1.38;1.15;;;1.90;98.00;;;;;;5081188;28;20074;-68
2021/01/12 11:24:18;;;;;;;3.67;1.40;;;1.90;98.00;;;;;;5078867;28;20024;-69
2021/01/12 11:26:44;;;;;;;2.10;1.48;;;1.90;98.00;;;;;;5086986;28;20456;-68
2021/01/12 11:29:11;;;;;;;1.48;1.17;;;1.80;98.00;;;;;;5077156;28;20076;-67
2021/01/12 11:31:37;;;;;;;1.50;1.15;;;1.80;98.00;;;;;;5084142;28;20330;-67
2021/01/12 11:34:03;;;;;;;2.22;1.27;;;1.70;98.00;;;;;;5097705;28;20094;-68
2021/01/12 11:36:42;;;;;;;1.85;1.20;;;1.70;98.00;;;;;;5094661;28;20023;-69
2021/01/12 11:39:09;;;;;;;2.67;1.60;;;1.70;98.00;;;;;;5080740;28;20364;-67
2021/01/12 11:41:45;;;;;;;1.60;1.25;;;1.70;98.00;;;;;;5077465;28;20025;-67
2021/01/12 11:44:11;;;;;;;3.05;1.65;;;1.70;98.00;;;;;;5076086;28;20074;-66
2021/01/12 11:46:36;;;;;;;1.67;1.20;;;1.70;98.00;;;;;;5077424;28;20029;-68
2021/01/12 11:49:02;;;;;;;3.08;1.88;;;1.70;98.00;;;;;;5076837;28;20035;-66
2021/01/12 11:51:38;;;;;;;2.30;1.40;;;1.80;98.00;;;;;;5080877;28;20119;-66
2021/01/12 11:54:05;;;;;;;3.10;2.05;;;1.70;98.00;;;;;;5097134;28;20020;-66
2021/01/12 11:56:31;;;;;;;1.88;1.40;;;1.60;98.00;;;;;;5091110;28;20099;-66
2021/01/12 11:58:57;;;;;;;1.85;1.35;;;1.60;98.00;;;;;;5089307;28;20085;-68
2021/01/12 12:01:23;;;;;;;2.40;1.45;;;1.60;98.00;;;;;;5091180;28;20032;-66
2021/01/12 12:03:48;;;;;;;1.67;1.13;;;1.70;98.00;;;;;;5076677;28;20033;-66
2021/01/12 12:06:14;;;;;;;2.30;1.45;;;1.70;98.00;;;;;;5078455;28;20058;-66
2021/01/12 12:08:40;;;;;;;1.30;1.10;;;1.60;98.00;;;;;;5096067;28;20089;-68
2021/01/12 12:11:05;;;;;;;1.67;1.20;;;1.60;98.00;;;;;;5093544;28;20035;-66
2021/01/12 12:13:36;;;;;;;2.25;1.33;;;1.60;98.00;;;;;;5076664;28;20032;-67
2021/01/12 12:16:02;;;;;;;1.92;1.30;;;1.70;98.00;;;;;;5078699;28;20404;-67
2021/01/12 12:18:27;;;;;;;2.13;1.40;;;1.60;98.00;;;;;;5077059;28;20118;-66
2021/01/12 12:20:53;;;;;;;2.35;1.58;;;1.70;98.00;;;;;;5076702;28;20154;-65
2021/01/12 12:23:19;;;;;;;1.83;1.40;;;1.70;98.00;;;;;;5085471;28;20032;-65
2021/01/12 12:25:44;;;;;;;2.25;1.40;;;1.70;98.00;;;;;;5078619;28;20028;-65
2021/01/12 12:28:10;;;;;;;3.38;1.27;;;1.70;98.00;;;;;;5095351;28;20032;-67
2021/01/12 12:30:36;;;;;;;2.03;1.30;;;1.80;98.00;;;;;;5088597;28;20024;-66
2021/01/12 12:33:01;;;;;;;3.03;1.60;;;1.80;98.00;;;;;;5079748;28;20336;-65
2021/01/12 12:35:27;;;;;;;1.33;1.10;;;1.80;98.00;;;;;;5076396;28;20039;-66
2021/01/12 12:37:53;;;;;;;1.77;1.20;;;1.80;98.00;;;;;;5080384;28;20099;-64
2021/01/12 12:40:19;;;;;;;1.65;1.20;;;1.80;98.00;;;;;;5079353;28;20039;-64
2021/01/12 12:42:45;;;;;;;1.52;1.13;;;1.80;98.00;;;;;;5081807;28;20036;-64
2021/01/12 12:45:10;;;;;;;1.60;1.27;;;1.80;98.00;;;;;;5083514;28;20081;-67
2021/01/12 12:47:36;;;;;;;1.90;1.30;;;1.80;98.00;;;;;;5080813;28;20119;-65
2021/01/12 12:50:03;;;;;;;2.10;1.30;;;1.90;98.00;;;;;;5079561;28;20032;-67
2021/01/12 12:52:29;;;;;;;2.15;1.50;;;1.90;98.00;;;;;;5080436;28;20028;-65
2021/01/12 12:54:58;;;;;;;1.95;1.30;;;1.90;98.00;;;;;;5079801;28;20032;-65
2021/01/12 12:57:23;;;;;;;1.83;1.30;;;1.90;98.00;;;;;;5083025;28;20020;-66
2021/01/12 12:59:49;;;;;;;2.28;1.42;;;1.90;98.00;;;;;;5082780;28;20032;-67